createdAt,value
2022-12-04T00:01:39.673Z,19.45
2022-12-04T00:04:08.272Z,17.63
2022-12-04T00:06:36.448Z,19.88
2022-12-04T00:09:05.550Z,21.50
2022-12-04T00:11:34.295Z,21.38
2022-12-04T00:14:06.951Z,17.80
2022-12-04T00:16:36.865Z,17.15
2022-12-04T00:19:06.428Z,20.42
2022-12-04T00:21:34.468Z,18.58
2022-12-04T00:24:02.642Z,21.08
2022-12-04T00:26:31.677Z,21.13
2022-12-04T00:28:59.985Z,19.60
2022-12-04T00:31:29.992Z,19.67
2022-12-04T00:34:00.596Z,21.15
2022-12-04T00:36:30.304Z,20.65
2022-12-04T00:39:00.392Z,19.85
2022-12-04T00:41:33.898Z,20.25
2022-12-04T00:44:03.458Z,20.37
2022-12-04T00:46:31.641Z,19.65
2022-12-04T00:49:02.631Z,20.27
2022-12-04T00:51:31.289Z,19.40
2022-12-04T00:53:59.280Z,18.40
2022-12-04T00:56:30.452Z,24.05
2022-12-04T00:59:01.169Z,23.33
2022-12-04T01:01:30.124Z,19.90
2022-12-04T01:03:58.257Z,21.98
2022-12-04T01:06:29.877Z,21.90
2022-12-04T01:09:00.653Z,20.42
2022-12-04T01:11:30.368Z,24.08
2022-12-04T01:13:59.562Z,21.63
2022-12-04T01:16:30.760Z,20.95
2022-12-04T01:18:59.075Z,21.45
2022-12-04T01:21:28.548Z,23.15
2022-12-04T01:23:56.575Z,20.88
2022-12-04T01:26:24.834Z,24.10
2022-12-04T01:28:52.816Z,18.58
2022-12-04T01:31:22.686Z,20.98
2022-12-04T01:33:51.876Z,23.98
2022-12-04T01:36:24.185Z,21.02
2022-12-04T01:38:54.407Z,21.10
2022-12-04T01:41:25.571Z,21.17
2022-12-04T01:44:15.359Z,23.13
2022-12-04T01:46:44.637Z,22.02
2022-12-04T01:49:16.590Z,22.20
2022-12-04T01:51:49.267Z,22.08
2022-12-04T01:54:28.209Z,23.40
2022-12-04T01:57:00.625Z,22.33
2022-12-04T01:59:32.985Z,22.67
2022-12-04T02:02:04.793Z,23.45
2022-12-04T02:04:34.940Z,25.10
2022-12-04T02:07:03.032Z,25.38
2022-12-04T02:09:33.482Z,21.52
2022-12-04T02:12:08.703Z,22.85
2022-12-04T02:14:45.501Z,22.85
2022-12-04T02:17:22.126Z,20.90
2022-12-04T02:20:00.225Z,24.08
2022-12-04T02:22:45.059Z,23.67
2022-12-04T02:25:25.653Z,27.23
2022-12-04T02:28:03.882Z,23.02
2022-12-04T02:30:36.062Z,24.90
2022-12-04T02:33:09.604Z,24.48
2022-12-04T02:35:42.303Z,20.50
2022-12-04T02:38:16.750Z,23.67
2022-12-04T02:40:52.489Z,27.50
2022-12-04T02:43:26.362Z,20.98
2022-12-04T02:46:00.957Z,23.25
2022-12-04T02:51:02.910Z,22.48
2022-12-04T02:53:36.287Z,23.75
2022-12-04T02:56:10.565Z,23.05
2022-12-04T02:58:45.654Z,20.30
2022-12-04T03:01:23.744Z,24.75
2022-12-04T03:03:57.147Z,24.13
2022-12-04T03:06:28.289Z,24.40
2022-12-04T03:09:02.324Z,22.10
2022-12-04T03:11:35.848Z,23.25
2022-12-04T03:14:10.754Z,22.25
2022-12-04T03:16:42.016Z,20.40
2022-12-04T03:19:14.263Z,20.95
2022-12-04T03:21:47.520Z,23.48
2022-12-04T03:24:20.948Z,23.23
2022-12-04T03:26:52.938Z,24.40
2022-12-04T03:29:29.554Z,22.00
2022-12-04T03:32:04.933Z,21.75
2022-12-04T03:34:40.186Z,21.83
2022-12-04T03:37:14.625Z,23.63
2022-12-04T03:39:52.623Z,22.27
2022-12-04T03:42:26.634Z,22.00
2022-12-04T03:45:02.908Z,21.80
2022-12-04T03:47:36.767Z,24.10
2022-12-04T03:50:10.503Z,19.75
2022-12-04T03:52:47.664Z,26.77
2022-12-04T03:55:22.944Z,22.05
2022-12-04T03:57:53.399Z,23.85
2022-12-04T04:00:23.951Z,19.55
2022-12-04T04:02:56.888Z,22.75
2022-12-04T04:05:26.881Z,20.73
2022-12-04T04:08:18.169Z,21.88
2022-12-04T04:10:46.575Z,24.98
2022-12-04T04:13:37.467Z,20.83
2022-12-04T04:16:28.460Z,19.77
2022-12-04T04:19:17.222Z,21.75
2022-12-04T04:22:04.540Z,21.80
2022-12-04T04:24:40.160Z,22.20
2022-12-04T04:27:08.511Z,21.52
2022-12-04T04:29:37.010Z,21.20
2022-12-04T04:32:13.338Z,20.98
2022-12-04T04:34:49.910Z,21.35
2022-12-04T04:37:29.999Z,22.08
2022-12-04T04:40:05.958Z,20.75
2022-12-04T04:42:39.196Z,19.17
2022-12-04T04:45:15.006Z,19.35
2022-12-04T04:47:49.985Z,21.30
2022-12-04T04:50:19.626Z,19.90
2022-12-04T04:52:51.992Z,20.20
2022-12-04T04:55:21.133Z,19.20
2022-12-04T04:57:50.752Z,23.00
2022-12-04T05:00:22.044Z,22.98
2022-12-04T05:02:51.412Z,21.75
2022-12-04T05:05:19.470Z,23.17
2022-12-04T05:07:47.602Z,19.63
2022-12-04T05:10:15.580Z,18.48
2022-12-04T05:12:43.506Z,21.55
2022-12-04T05:15:12.186Z,20.23
2022-12-04T05:17:40.182Z,19.27
2022-12-04T05:20:11.738Z,21.17
2022-12-04T05:22:39.633Z,20.20
2022-12-04T05:25:08.386Z,19.88
2022-12-04T05:27:36.312Z,19.75
2022-12-04T05:30:05.265Z,19.73
2022-12-04T05:32:33.165Z,21.77
2022-12-04T05:35:01.642Z,20.58
2022-12-04T05:37:32.378Z,20.25
2022-12-04T05:40:00.284Z,19.48
2022-12-04T05:42:28.151Z,20.45
2022-12-04T05:44:56.112Z,20.73
2022-12-04T05:47:24.012Z,20.63
2022-12-04T05:49:52.229Z,19.48
2022-12-04T05:52:20.299Z,20.67
2022-12-04T05:54:49.520Z,21.00
2022-12-04T05:57:17.350Z,18.25
2022-12-04T05:59:45.267Z,20.50
2022-12-04T06:02:13.216Z,21.73
2022-12-04T06:04:41.199Z,20.75
2022-12-04T06:07:10.573Z,21.15
2022-12-04T06:09:39.058Z,19.35
2022-12-04T06:12:08.518Z,21.42
2022-12-04T06:14:39.783Z,22.80
2022-12-04T06:17:08.290Z,21.27
2022-12-04T06:19:36.548Z,18.83
2022-12-04T06:22:05.022Z,21.20
2022-12-04T06:24:33.024Z,21.75
2022-12-04T06:27:26.633Z,18.42
2022-12-04T06:29:51.006Z,21.38
2022-12-04T06:32:21.841Z,22.20
2022-12-04T06:34:52.503Z,20.58
2022-12-04T06:37:20.800Z,21.42
2022-12-04T06:39:48.723Z,22.65
2022-12-04T06:42:16.897Z,19.70
2022-12-04T06:44:44.859Z,22.17
2022-12-04T06:47:14.127Z,20.88
2022-12-04T06:49:42.207Z,19.52
2022-12-04T06:52:10.110Z,18.63
2022-12-04T06:54:38.034Z,19.42
2022-12-04T06:57:05.940Z,22.55
2022-12-04T06:59:34.025Z,18.85
2022-12-04T07:02:02.066Z,20.17
2022-12-04T07:04:31.373Z,20.48
2022-12-04T07:06:59.337Z,20.48
2022-12-04T07:09:27.453Z,20.92
2022-12-04T07:11:55.446Z,20.00
2022-12-04T07:14:23.375Z,19.42
2022-12-04T07:16:51.449Z,18.33
2022-12-04T07:19:19.516Z,19.70
2022-12-04T07:21:48.814Z,23.02
2022-12-04T07:24:18.132Z,21.38
2022-12-04T07:26:46.301Z,19.42
2022-12-04T07:29:14.567Z,21.38
2022-12-04T07:31:44.173Z,20.77
2022-12-04T07:34:12.274Z,22.50
2022-12-04T07:36:41.270Z,20.17
2022-12-04T07:39:10.525Z,20.77
2022-12-04T07:41:38.535Z,20.67
2022-12-04T07:44:08.713Z,20.83
2022-12-04T07:46:36.629Z,19.80
2022-12-04T07:49:04.612Z,21.23
2022-12-04T07:51:32.570Z,19.60
2022-12-04T07:54:03.629Z,18.92
2022-12-04T07:56:37.846Z,18.83
2022-12-04T07:59:05.877Z,19.15
2022-12-04T08:01:34.262Z,19.23
2022-12-04T08:05:27.729Z,19.60
2022-12-04T08:07:55.690Z,19.70
2022-12-04T08:10:23.896Z,17.60
2022-12-04T08:12:51.779Z,19.60
2022-12-04T08:15:19.631Z,22.48
2022-12-04T08:17:47.604Z,19.55
2022-12-04T08:20:16.268Z,20.88
2022-12-04T08:22:45.500Z,21.20
2022-12-04T08:25:13.425Z,20.85
2022-12-04T08:27:47.741Z,20.08
2022-12-04T08:30:16.073Z,18.00
2022-12-04T08:32:44.018Z,20.65
2022-12-04T08:35:11.959Z,19.63
2022-12-04T08:37:39.937Z,18.55
2022-12-04T08:40:11.527Z,19.92
2022-12-04T08:42:39.507Z,18.67
2022-12-04T08:45:08.767Z,21.17
2022-12-04T08:47:36.709Z,17.40
2022-12-04T08:50:05.437Z,19.83
2022-12-04T08:52:33.379Z,19.08
2022-12-04T08:55:01.285Z,19.15
2022-12-04T08:57:30.539Z,18.63
2022-12-04T08:59:58.751Z,19.67
2022-12-04T09:02:26.823Z,18.13
2022-12-04T09:04:57.570Z,18.65
2022-12-04T09:07:25.577Z,20.27
2022-12-04T09:09:53.504Z,20.27
2022-12-04T09:12:24.138Z,20.35
2022-12-04T09:14:53.408Z,20.10
2022-12-04T09:17:21.486Z,18.92
2022-12-04T09:19:50.036Z,20.60
2022-12-04T09:22:18.020Z,20.73
2022-12-04T09:24:45.869Z,18.30
2022-12-04T09:27:15.111Z,18.13
2022-12-04T09:29:43.125Z,16.27
2022-12-04T09:32:12.409Z,18.45
2022-12-04T09:34:47.047Z,16.65
2022-12-04T09:37:18.910Z,18.92
2022-12-04T09:39:47.478Z,18.08
2022-12-04T09:42:36.829Z,19.08
2022-12-04T09:45:11.835Z,17.08
2022-12-04T09:47:45.549Z,19.77
2022-12-04T09:50:17.862Z,17.50
2022-12-04T09:52:51.962Z,18.45
2022-12-04T09:55:25.330Z,19.40
2022-12-04T09:58:01.492Z,18.90
2022-12-04T10:00:33.511Z,19.73
2022-12-04T10:03:06.423Z,18.52
2022-12-04T10:05:50.528Z,13.85
2022-12-04T10:08:23.469Z,17.88
2022-12-04T10:11:00.566Z,19.90
2022-12-04T10:13:58.262Z,21.73
2022-12-04T10:16:34.489Z,18.25
2022-12-04T10:19:09.309Z,17.88
2022-12-04T10:21:50.893Z,18.58
2022-12-04T10:24:27.121Z,17.33
2022-12-04T10:26:59.300Z,17.70
2022-12-04T10:29:31.742Z,16.25
2022-12-04T10:32:13.809Z,19.33
2022-12-04T10:34:46.238Z,17.15
2022-12-04T10:37:16.170Z,19.08
2022-12-04T10:39:49.049Z,18.27
2022-12-04T10:42:26.683Z,16.88
2022-12-04T10:44:55.075Z,15.48
2022-12-04T10:47:24.618Z,16.25
2022-12-04T10:49:59.858Z,17.33
2022-12-04T10:52:27.804Z,19.50
2022-12-04T10:54:59.303Z,18.80
2022-12-04T10:57:37.353Z,15.68
2022-12-04T11:00:24.051Z,15.63
2022-12-04T11:02:53.130Z,16.38
2022-12-04T11:05:29.440Z,17.40
2022-12-04T11:07:58.343Z,17.23
2022-12-04T11:10:32.933Z,14.63
2022-12-04T11:13:02.654Z,17.05
2022-12-04T11:15:31.291Z,16.88
2022-12-04T11:18:09.060Z,18.52
2022-12-04T11:20:40.752Z,15.77
2022-12-04T11:23:17.341Z,16.75
2022-12-04T11:25:47.807Z,16.20
2022-12-04T11:28:40.163Z,16.52
2022-12-04T11:31:12.051Z,15.77
2022-12-04T11:33:44.201Z,16.05
2022-12-04T11:36:21.869Z,14.85
2022-12-04T11:38:50.700Z,17.65
2022-12-04T11:41:27.078Z,15.55
2022-12-04T11:43:59.539Z,16.75
2022-12-04T11:46:30.812Z,14.00
2022-12-04T11:48:59.082Z,15.90
2022-12-04T11:51:40.867Z,16.50
2022-12-04T11:54:21.618Z,16.00
2022-12-04T11:56:59.845Z,13.43
2022-12-04T11:59:48.759Z,15.15
2022-12-04T12:02:34.218Z,14.27
2022-12-04T12:05:28.434Z,16.25
2022-12-04T12:08:06.948Z,15.65
2022-12-04T12:10:45.008Z,14.65
2022-12-04T12:13:19.699Z,16.40
2022-12-04T12:15:56.725Z,16.17
2022-12-04T12:18:44.883Z,16.25
2022-12-04T12:21:21.426Z,15.93
2022-12-04T12:24:08.284Z,15.13
2022-12-04T12:26:46.369Z,16.17
2022-12-04T12:29:27.894Z,14.85
2022-12-04T12:32:09.914Z,16.08
2022-12-04T12:34:41.499Z,15.02
2022-12-04T12:37:17.969Z,15.90
2022-12-04T12:39:56.793Z,14.98
2022-12-04T12:42:31.732Z,15.93
2022-12-04T12:45:05.730Z,15.85
2022-12-04T12:47:41.953Z,16.65
2022-12-04T12:50:16.662Z,15.48
2022-12-04T12:52:52.708Z,16.33
2022-12-04T12:55:27.017Z,15.45
2022-12-04T12:58:02.325Z,13.70
2022-12-04T13:00:33.335Z,16.33
2022-12-04T13:03:04.900Z,12.48
2022-12-04T13:05:38.616Z,15.30
2022-12-04T13:08:18.049Z,16.87
2022-12-04T13:10:51.123Z,15.45
2022-12-04T13:13:27.406Z,16.40
2022-12-04T13:16:00.396Z,16.33
2022-12-04T13:18:31.504Z,16.58
2022-12-04T13:21:03.217Z,15.35
2022-12-04T13:23:47.955Z,15.82
2022-12-04T13:26:30.815Z,14.73
2022-12-04T13:29:09.845Z,15.20
2022-12-04T13:31:53.092Z,16.42
2022-12-04T13:34:45.307Z,16.58
2022-12-04T13:37:45.190Z,15.55
2022-12-04T13:40:38.617Z,17.33
2022-12-04T13:43:28.879Z,17.25
2022-12-04T13:46:00.309Z,16.00
2022-12-04T13:48:36.433Z,16.30
2022-12-04T13:51:23.384Z,17.15
2022-12-04T13:54:03.194Z,16.15
2022-12-04T13:56:32.841Z,15.85
2022-12-04T13:59:06.355Z,16.30
2022-12-04T14:01:40.338Z,16.27
2022-12-04T14:04:08.932Z,19.45
2022-12-04T14:06:40.351Z,18.40
2022-12-04T14:09:19.527Z,15.80
2022-12-04T14:11:52.290Z,16.92
2022-12-04T14:14:29.490Z,17.08
2022-12-04T14:17:03.160Z,16.92
2022-12-04T14:19:35.542Z,18.42
2022-12-04T14:22:04.586Z,16.98
2022-12-04T14:24:36.140Z,19.30
2022-12-04T14:27:24.936Z,16.05
2022-12-04T14:29:57.951Z,17.50
2022-12-04T14:32:29.063Z,17.15
2022-12-04T14:34:58.926Z,18.33
2022-12-04T14:37:32.070Z,18.77
2022-12-04T14:40:01.742Z,17.38
2022-12-04T14:42:37.692Z,19.17
2022-12-04T14:45:22.537Z,17.77
2022-12-04T14:48:16.952Z,17.77
2022-12-04T14:50:55.529Z,20.70
2022-12-04T14:53:36.078Z,18.55
2022-12-04T14:56:18.919Z,17.40
2022-12-04T14:58:47.203Z,18.02
2022-12-04T15:01:28.962Z,19.77
2022-12-04T15:04:03.899Z,18.20
2022-12-04T15:06:34.819Z,19.17
2022-12-04T15:09:23.082Z,19.33
2022-12-04T15:12:13.744Z,20.60
2022-12-04T15:14:43.526Z,21.25
2022-12-04T15:17:19.379Z,20.40
2022-12-04T15:19:48.711Z,19.52
2022-12-04T15:22:24.163Z,20.00
2022-12-04T15:24:55.918Z,21.35
2022-12-04T15:27:32.622Z,19.33
2022-12-04T15:30:05.393Z,21.80
2022-12-04T15:32:35.485Z,19.60
2022-12-04T15:35:06.997Z,21.38
2022-12-04T15:37:38.164Z,21.75
2022-12-04T15:40:07.990Z,21.77
2022-12-04T15:42:36.175Z,20.33
2022-12-04T15:45:26.359Z,23.63
2022-12-04T15:47:57.180Z,22.10
2022-12-04T15:50:28.040Z,24.20
2022-12-04T15:53:00.766Z,22.05
2022-12-04T15:55:31.792Z,20.10
2022-12-04T15:58:05.831Z,20.70
2022-12-04T16:00:37.288Z,21.85
2022-12-04T16:03:22.814Z,23.15
2022-12-04T16:05:50.991Z,22.00
2022-12-04T16:08:27.090Z,22.92
2022-12-04T16:11:00.484Z,23.23
2022-12-04T16:13:32.284Z,21.88
2022-12-04T16:16:01.332Z,25.58
2022-12-04T16:18:30.820Z,23.02
2022-12-04T16:20:58.913Z,24.75
2022-12-04T16:23:30.304Z,21.63
2022-12-04T16:25:58.299Z,23.92
2022-12-04T16:28:26.305Z,23.27
2022-12-04T16:30:54.674Z,23.40
2022-12-04T16:33:22.769Z,26.40
2022-12-04T16:35:52.097Z,25.10
2022-12-04T16:38:22.598Z,22.65
2022-12-04T16:40:50.713Z,22.20
2022-12-04T16:43:22.116Z,22.63
2022-12-04T16:45:53.362Z,24.35
2022-12-04T16:48:21.463Z,27.92
2022-12-04T16:50:49.619Z,26.75
2022-12-04T16:53:21.172Z,24.50
2022-12-04T16:55:50.872Z,21.70
2022-12-04T16:58:20.290Z,25.90
2022-12-04T17:00:53.270Z,23.70
2022-12-04T17:03:25.575Z,27.05
2022-12-04T17:05:53.706Z,23.15
2022-12-04T17:08:23.971Z,23.77
2022-12-04T17:10:52.988Z,22.20
2022-12-04T17:13:22.255Z,22.80
2022-12-04T17:15:53.460Z,24.83
2022-12-04T17:18:28.708Z,24.95
2022-12-04T17:20:58.598Z,26.60
2022-12-04T17:23:28.265Z,26.33
2022-12-04T17:25:56.331Z,27.98
2022-12-04T17:28:24.495Z,24.85
2022-12-04T17:30:52.498Z,24.40
2022-12-04T17:33:23.295Z,25.10
2022-12-04T17:35:53.047Z,30.42
2022-12-04T17:38:23.528Z,24.48
2022-12-04T17:41:01.121Z,26.23
2022-12-04T17:43:32.073Z,25.42
2022-12-04T17:46:00.725Z,27.90
2022-12-04T17:48:30.075Z,29.20
2022-12-04T17:51:08.421Z,28.05
2022-12-04T17:53:39.260Z,28.55
2022-12-04T17:56:11.475Z,28.63
2022-12-04T17:58:39.893Z,28.00
2022-12-04T18:01:12.491Z,25.42
2022-12-04T18:03:41.243Z,29.58
2022-12-04T18:06:14.808Z,25.65
2022-12-04T18:08:48.294Z,26.25
2022-12-04T18:11:21.427Z,28.40
2022-12-04T18:13:50.117Z,24.58
2022-12-04T18:16:20.241Z,29.50
2022-12-04T18:18:48.618Z,26.15
2022-12-04T18:21:19.386Z,27.60
2022-12-04T18:23:47.430Z,22.83
2022-12-04T18:26:17.436Z,20.52
2022-12-04T18:28:47.703Z,25.10
2022-12-04T18:31:21.344Z,25.90
2022-12-04T18:33:50.261Z,21.70
2022-12-04T18:36:21.087Z,23.70
2022-12-04T18:38:54.824Z,23.63
2022-12-04T18:41:22.950Z,23.38
2022-12-04T18:43:52.521Z,24.20
2022-12-04T18:46:23.631Z,25.98
2022-12-04T18:48:54.597Z,22.92
2022-12-04T18:51:24.503Z,24.67
2022-12-04T18:53:55.319Z,23.30
2022-12-04T18:56:25.867Z,23.38
2022-12-04T18:58:59.986Z,27.38
2022-12-04T19:01:29.018Z,26.83
2022-12-04T19:04:00.784Z,26.42
2022-12-04T19:06:30.870Z,26.05
2022-12-04T19:09:01.347Z,23.63
2022-12-04T19:11:29.643Z,24.80
2022-12-04T19:13:59.552Z,27.05
2022-12-04T19:16:28.261Z,24.02
2022-12-04T19:18:57.348Z,27.92
2022-12-04T19:21:25.335Z,24.25
2022-12-04T19:23:58.136Z,24.33
2022-12-04T19:26:26.811Z,22.70
2022-12-04T19:28:55.921Z,22.73
2022-12-04T19:31:27.627Z,24.05
2022-12-04T19:33:57.730Z,21.20
2022-12-04T19:36:26.326Z,21.65
2022-12-04T19:38:54.607Z,23.80
2022-12-04T19:41:25.654Z,21.67
2022-12-04T19:43:57.124Z,27.98
2022-12-04T19:46:29.065Z,22.88
2022-12-04T19:49:01.463Z,22.60
2022-12-04T19:51:32.011Z,25.08
2022-12-04T19:54:01.210Z,25.50
2022-12-04T19:56:31.604Z,26.65
2022-12-04T19:59:03.086Z,26.95
2022-12-04T20:01:33.377Z,23.08
2022-12-04T20:04:03.588Z,22.25
2022-12-04T20:06:35.687Z,23.65
2022-12-04T20:09:06.184Z,22.83
2022-12-04T20:11:35.193Z,22.45
2022-12-04T20:14:04.214Z,21.02
2022-12-04T20:16:35.712Z,21.60
2022-12-04T20:19:06.204Z,22.17
2022-12-04T20:21:35.127Z,21.50
2022-12-04T20:24:06.584Z,23.80
2022-12-04T20:26:37.464Z,24.35
2022-12-04T20:29:07.261Z,22.73
2022-12-04T20:31:39.648Z,23.42
2022-12-04T20:34:11.479Z,21.13
2022-12-04T20:36:41.654Z,22.73
2022-12-04T20:39:11.471Z,21.23
2022-12-04T20:41:39.963Z,22.60
2022-12-04T20:44:12.421Z,22.10
2022-12-04T20:46:42.560Z,23.15
2022-12-04T20:49:20.705Z,23.75
2022-12-04T20:51:51.004Z,23.80
2022-12-04T20:54:21.371Z,21.33
2022-12-04T20:56:49.863Z,20.23
2022-12-04T20:59:19.309Z,24.27
2022-12-04T21:01:50.466Z,20.75
2022-12-04T21:04:19.104Z,26.15
2022-12-04T21:06:47.783Z,22.45
2022-12-04T21:09:18.057Z,24.08
2022-12-04T21:11:49.204Z,28.40
2022-12-04T21:14:36.638Z,23.48
2022-12-04T21:17:07.429Z,24.95
2022-12-04T21:19:35.764Z,23.38
2022-12-04T21:22:04.109Z,22.17
2022-12-04T21:24:38.389Z,21.30
2022-12-04T21:27:07.760Z,21.52
2022-12-04T21:29:35.986Z,22.30
2022-12-04T21:32:04.623Z,23.10
2022-12-04T21:34:34.647Z,24.92
2022-12-04T21:37:02.597Z,21.50
2022-12-04T21:39:30.773Z,21.90
2022-12-04T21:42:18.731Z,23.08
2022-12-04T21:44:46.852Z,21.98
2022-12-04T21:47:16.740Z,23.67
2022-12-04T21:49:48.943Z,20.98
2022-12-04T21:52:27.897Z,23.23
2022-12-04T21:54:56.648Z,22.63
2022-12-04T21:57:25.317Z,23.25
2022-12-04T21:59:57.736Z,21.33
2022-12-04T22:02:26.041Z,22.20
2022-12-04T22:04:55.713Z,22.02
2022-12-04T22:07:23.868Z,21.83
2022-12-04T22:09:51.825Z,21.02
2022-12-04T22:12:47.717Z,24.35
2022-12-04T22:15:09.022Z,20.45
2022-12-04T22:17:39.241Z,23.58
2022-12-04T22:20:09.528Z,23.85
2022-12-04T22:22:37.535Z,24.80
2022-12-04T22:25:06.017Z,20.90
2022-12-04T22:27:34.132Z,23.08
2022-12-04T22:30:02.484Z,21.42
2022-12-04T22:32:32.312Z,26.38
2022-12-04T22:35:00.339Z,34.60
2022-12-04T22:37:29.576Z,21.45
2022-12-04T22:40:00.436Z,21.83
2022-12-04T22:42:28.411Z,26.10
2022-12-04T22:44:56.408Z,22.85
2022-12-04T22:47:24.416Z,23.45
2022-12-04T22:49:52.360Z,20.88
2022-12-04T22:52:20.469Z,22.73
2022-12-04T22:54:51.171Z,21.67
2022-12-04T22:57:19.435Z,21.48
2022-12-04T22:59:47.320Z,22.70
2022-12-04T23:02:15.226Z,22.67
2022-12-04T23:04:43.773Z,21.40
2022-12-04T23:07:11.848Z,22.80
2022-12-04T23:09:40.104Z,22.45
2022-12-04T23:12:10.053Z,21.27
2022-12-04T23:14:37.968Z,21.83
2022-12-04T23:17:06.145Z,22.40
2022-12-04T23:19:34.309Z,23.60
2022-12-04T23:22:02.308Z,22.60
2022-12-04T23:24:30.244Z,22.33
2022-12-04T23:26:58.284Z,22.55
2022-12-04T23:29:51.956Z,24.05
2022-12-04T23:32:16.389Z,23.58
2022-12-04T23:34:44.436Z,24.15
2022-12-04T23:37:12.482Z,23.48
2022-12-04T23:39:40.512Z,21.05
2022-12-04T23:42:08.508Z,26.27
2022-12-04T23:44:37.989Z,22.17
2022-12-04T23:47:05.987Z,22.90
2022-12-04T23:49:34.187Z,24.25
2022-12-04T23:52:02.529Z,24.65
2022-12-04T23:54:34.923Z,22.10
2022-12-04T23:57:03.262Z,24.52
2022-12-04T23:59:31.595Z,23.77
